Aviation Digital Data Service (ADDS)

Output produced by TAFs form (0832 UTC 28 September 2016)
found at http://aviationweather.gov/adds/tafs/
 
KELP 280541Z 2806/2906 VRB04KT P6SM FEW110 BKN250 
     FM281900 11009KT P6SM FEW090 FEW150 SCT250 
     FM290000 12006KT P6SM BKN250